»·PEaware :: SWA429 KSAN-KLAS

SWA429 :: KSAN-KLAS

FLIGHT INFORMATION

Flight Status: Arrived
Operator:
Southwest Airlines
More flights by this operator :: More flights under this callsign
Pilot: Cody B. (17747)
Aircraft: BOEING 737-800
(B738)
More flights by this aircraft type
Origin: KSAN San Diego Intl-Lindbergh
United States
Destination: KLAS McCarran Intl
United States
More flights between these airports :: More routes between these airports
Route: +PADRZ2 CHCKN SEBBY YELAH MISEN KEPEC6
File this flight plan on PilotEdge
Remarks:
Altitude:
(Current/Filed)
29,000ft
Speed:
(Current/Filed)
450kts
Departed: 10-Jan-18 04:16 PM
Arrived: 10-Jan-18 05:26 PM
Distance/Time
Traveled:
225nm/1:10
Distance/Time
To Go:
Arrived

Flight Plot

Page will automatically refresh every two minutes.

Flight plan parsing failed; only flown route is shown


Map Options




Map Legend


Flown Route
Filed Route
Departure Airport
Arrival Airport
Navaid (VOR, NDB)
Fix

Horizontal Profiles

Position Reports

Time Latitude Longitude Heading Altitude Ground
Speed
10-Jan-18 15:54 32.733148 -117.195662 225 19ft 0kts
10-Jan-18 15:55 32.733148 -117.195662 225 19ft 0kts
10-Jan-18 15:56 32.733148 -117.195662 225 19ft 0kts
10-Jan-18 15:57 32.733148 -117.195662 225 19ft 0kts
10-Jan-18 15:58 32.733148 -117.195662 225 19ft 0kts
10-Jan-18 15:59 32.733148 -117.195662 225 19ft 0kts
10-Jan-18 16:00 32.733148 -117.195662 225 19ft 0kts
10-Jan-18 16:01 32.733148 -117.195662 225 19ft 0kts
10-Jan-18 16:02 32.733148 -117.195662 225 19ft 0kts
10-Jan-18 16:03 32.733148 -117.195662 225 19ft 0kts
10-Jan-18 16:04 32.733148 -117.195662 225 19ft 0kts
10-Jan-18 16:05 32.733148 -117.195662 225 19ft 0kts
10-Jan-18 16:06 32.733148 -117.195662 225 19ft 0kts
10-Jan-18 16:07 32.733148 -117.195662 225 19ft 0kts
10-Jan-18 16:08 32.733148 -117.195661 225 19ft 0kts
10-Jan-18 16:09 32.733148 -117.195661 225 19ft 0kts
10-Jan-18 16:10 32.733413 -117.195484 173 20ft 2kts
10-Jan-18 16:11 32.733648 -117.195702 106 19ft 0kts
10-Jan-18 16:12 32.733662 -117.195772 105 19ft 0kts
10-Jan-18 16:13 32.733662 -117.195772 105 19ft 0kts
10-Jan-18 16:14 32.733656 -117.195725 97 19ft 0kts
10-Jan-18 16:15 32.733591 -117.194061 105 21ft 12kts
10-Jan-18 16:16 32.732118 -117.187963 105 18ft 23kts
10-Jan-18 16:17 32.730572 -117.181611 106 17ft 17kts
10-Jan-18 16:18 32.729286 -117.177399 69 21ft 8kts
10-Jan-18 16:19 32.729510 -117.176697 69 22ft 0kts
10-Jan-18 16:20 32.729515 -117.176682 69 23ft 0kts
10-Jan-18 16:21 32.730271 -117.176255 294 24ft 12kts
10-Jan-18 16:22 32.737733 -117.205022 287 478ft 203kts
10-Jan-18 16:23 32.771748 -117.272962 303 4283ft 238kts
10-Jan-18 16:24 32.810597 -117.335698 308 7434ft 241kts
10-Jan-18 16:25 32.851350 -117.398713 309 7985ft 242kts
10-Jan-18 16:26 32.892335 -117.462295 309 7978ft 242kts
10-Jan-18 16:27 32.933284 -117.525827 309 7975ft 242kts
10-Jan-18 16:28 32.974196 -117.589699 309 7974ft 242kts
10-Jan-18 16:29 33.014928 -117.653341 308 7975ft 242kts
10-Jan-18 16:30 33.055462 -117.716737 309 7997ft 242kts
10-Jan-18 16:31 33.102866 -117.769723 320 10122ft 250kts
10-Jan-18 16:32 33.154305 -117.821762 320 14113ft 251kts
10-Jan-18 16:33 33.208553 -117.876438 321 17569ft 264kts
10-Jan-18 16:34 33.266343 -117.932850 321 20791ft 276kts
10-Jan-18 16:35 33.326945 -117.992224 320 23586ft 290kts
10-Jan-18 16:36 33.389909 -118.053946 320 26226ft 300kts
10-Jan-18 16:37 33.453112 -118.115888 321 29040ft 285kts
10-Jan-18 16:38 33.519489 -118.180861 321 29135ft 335kts
10-Jan-18 16:39 33.600247 -118.250513 333 29123ft 383kts
10-Jan-18 16:40 33.698626 -118.303888 333 29094ft 391kts
10-Jan-18 16:41 33.800433 -118.275609 44 29095ft 459kts
10-Jan-18 16:42 33.871520 -118.146829 45 29101ft 462kts
10-Jan-18 16:43 33.944935 -118.021529 44 29091ft 461kts
10-Jan-18 16:44 34.018969 -117.896330 44 29089ft 460kts
10-Jan-18 16:45 34.093242 -117.771202 42 29126ft 458kts
10-Jan-18 16:46 34.171805 -117.655625 40 29147ft 454kts
10-Jan-18 16:47 34.250974 -117.537953 40 29109ft 453kts
10-Jan-18 16:48 34.330471 -117.419737 40 29107ft 454kts
10-Jan-18 16:49 34.409266 -117.302630 40 29090ft 455kts
10-Jan-18 16:50 34.489014 -117.184279 40 29090ft 452kts
10-Jan-18 16:51 34.568606 -117.066386 39 29088ft 452kts
10-Jan-18 16:52 34.647998 -116.948893 39 29042ft 452kts
10-Jan-18 16:53 34.727671 -116.831178 39 29041ft 452kts
10-Jan-18 16:54 34.807642 -116.713142 38 29041ft 449kts
10-Jan-18 16:55 34.888379 -116.610300 25 28953ft 378kts
10-Jan-18 16:56 34.971781 -116.530499 26 27037ft 379kts
10-Jan-18 16:57 35.050199 -116.454509 26 25250ft 363kts
10-Jan-18 16:58 35.124341 -116.377213 32 24072ft 355kts
10-Jan-18 16:59 35.193219 -116.289471 33 24048ft 361kts
10-Jan-18 17:00 35.262353 -116.201730 32 24048ft 355kts
10-Jan-18 17:01 35.331255 -116.114509 33 21788ft 354kts
10-Jan-18 17:02 35.398365 -116.029645 34 19307ft 346kts
10-Jan-18 17:03 35.464670 -115.945862 35 17076ft 333kts
10-Jan-18 17:04 35.528775 -115.864995 36 15843ft 332kts
10-Jan-18 17:05 35.592752 -115.784359 37 14589ft 328kts
10-Jan-18 17:06 35.655443 -115.705359 38 13380ft 315kts
10-Jan-18 17:07 35.712805 -115.632392 37 13022ft 293kts
10-Jan-18 17:08 35.773729 -115.576140 358 13024ft 260kts
10-Jan-18 17:09 35.845697 -115.570840 356 13016ft 259kts
10-Jan-18 17:10 35.917516 -115.566634 356 13006ft 259kts
10-Jan-18 17:11 35.982301 -115.529736 52 12997ft 303kts
10-Jan-18 17:12 36.011641 -115.437075 58 12381ft 282kts
10-Jan-18 17:13 36.029286 -115.344161 87 11471ft 289kts
10-Jan-18 17:14 36.021839 -115.249400 88 10714ft 267kts
10-Jan-18 17:15 36.015683 -115.161502 86 9116ft 255kts
10-Jan-18 17:16 36.009875 -115.074577 87 8024ft 253kts
10-Jan-18 17:17 36.004772 -114.989707 86 8030ft 237kts
10-Jan-18 17:18 35.999878 -114.907391 87 8013ft 242kts
10-Jan-18 17:19 35.994859 -114.825011 84 8037ft 228kts
10-Jan-18 17:20 35.989913 -114.749573 83 8016ft 223kts
10-Jan-18 17:21 35.984850 -114.673201 83 8014ft 224kts
10-Jan-18 17:22 36.011554 -114.633058 330 8053ft 164kts
10-Jan-18 17:23 36.041306 -114.677603 306 7968ft 173kts
10-Jan-18 17:24 36.069907 -114.723910 301 7650ft 174kts
10-Jan-18 17:25 36.072680 -114.788311 281 7398ft 193kts
10-Jan-18 17:26 36.072963 -114.854848 279 6381ft 197kts
10-Jan-18 17:27 36.073064 -114.919495 279 5362ft 171kts
10-Jan-18 17:28 36.073271 -114.974760 278 4462ft 150kts
10-Jan-18 17:29 36.073430 -115.022888 275 3702ft 140kts
10-Jan-18 17:30 36.073473 -115.071542 276 2950ft 145kts
10-Jan-18 17:31 36.073681 -115.121665 270 2187ft 146kts
10-Jan-18 17:32 36.074109 -115.144586 295 2099ft 0kts
10-Jan-18 17:33 36.074109 -115.144586 295 2099ft 0kts
10-Jan-18 17:34 36.075033 -115.146401 330 2104ft 15kts
10-Jan-18 17:35 36.078384 -115.145171 94 2095ft 18kts
10-Jan-18 17:36 36.079484 -115.141261 58 2080ft 11kts
10-Jan-18 17:37 36.079887 -115.140447 57 2076ft 0kts
10-Jan-18 17:38 36.079887 -115.140447 57 2076ft 0kts

Navigation Log

Ident Type
Flight plan parsing failed, navigation log unavailable